createdAt,value
2022-07-28T00:00:48.301Z,100484.63
2022-07-28T00:03:14.865Z,100487.00
2022-07-28T00:05:41.615Z,100498.22
2022-07-28T00:08:10.247Z,100490.16
2022-07-28T00:10:36.820Z,100484.84
2022-07-28T00:13:06.693Z,100488.19
2022-07-28T00:15:33.422Z,100492.28
2022-07-28T00:18:00.628Z,100496.88
2022-07-28T00:20:27.975Z,100498.72
2022-07-28T00:22:54.694Z,100494.09
2022-07-28T00:25:21.177Z,100494.84
2022-07-28T00:27:48.315Z,100494.91
2022-07-28T00:30:14.872Z,100498.28
2022-07-28T00:32:41.587Z,100500.13
2022-07-28T00:35:08.762Z,100502.22
2022-07-28T00:37:35.497Z,100502.69
2022-07-28T00:40:07.459Z,100501.72
2022-07-28T00:42:33.946Z,100493.44
2022-07-28T00:45:00.499Z,100495.19
2022-07-28T00:47:26.969Z,100495.63
2022-07-28T00:50:01.573Z,100499.00
2022-07-28T00:52:28.410Z,100496.53
2022-07-28T00:54:54.937Z,100504.47
2022-07-28T00:57:21.925Z,100509.72
2022-07-28T00:59:48.399Z,100503.47
2022-07-28T01:02:15.564Z,100507.75
2022-07-28T01:04:42.265Z,100505.00
2022-07-28T01:07:19.601Z,100509.31
2022-07-28T01:10:16.678Z,100503.09
2022-07-28T01:13:02.597Z,100506.34
2022-07-28T01:15:48.476Z,100509.59
2022-07-28T01:18:21.391Z,100510.28
2022-07-28T01:20:53.613Z,100511.88
2022-07-28T01:23:32.150Z,100505.97
2022-07-28T01:26:04.760Z,100498.75
2022-07-28T01:28:59.700Z,100504.41
2022-07-28T01:31:29.815Z,100489.72
2022-07-28T01:34:05.812Z,100497.88
2022-07-28T01:36:38.737Z,100497.00
2022-07-28T01:39:05.476Z,100499.06
2022-07-28T01:41:34.853Z,100496.28
2022-07-28T01:44:06.469Z,100496.66
2022-07-28T01:46:34.124Z,100498.44
2022-07-28T01:49:02.309Z,100494.91
2022-07-28T01:51:33.411Z,100497.16
2022-07-28T01:54:01.858Z,100503.25
2022-07-28T01:56:30.708Z,100500.41
2022-07-28T01:59:00.452Z,100499.94
2022-07-28T02:01:27.892Z,100497.28
2022-07-28T02:03:56.538Z,100505.03
2022-07-28T02:06:23.787Z,100505.72
2022-07-28T02:08:52.439Z,100497.16
2022-07-28T02:11:54.486Z,100495.31
2022-07-28T02:14:25.657Z,100500.25
2022-07-28T02:16:56.454Z,100503.56
2022-07-28T02:19:26.099Z,100500.78
2022-07-28T02:21:54.891Z,100501.97
2022-07-28T02:24:26.527Z,100500.84
2022-07-28T02:27:00.907Z,100499.75
2022-07-28T02:32:27.858Z,100505.69
2022-07-28T02:35:01.521Z,100503.41
2022-07-28T02:37:34.983Z,100496.56
2022-07-28T02:40:03.854Z,100501.84
2022-07-28T02:42:34.026Z,100505.66
2022-07-28T02:45:03.483Z,100495.84
2022-07-28T02:47:34.049Z,100503.66
2022-07-28T02:50:03.002Z,100500.50
2022-07-28T02:52:30.737Z,100505.97
2022-07-28T02:54:58.712Z,100504.38
2022-07-28T02:57:26.874Z,100507.19
2022-07-28T02:59:54.213Z,100505.50
2022-07-28T03:02:22.074Z,100504.69
2022-07-28T03:04:59.708Z,100502.84
2022-07-28T03:07:31.712Z,100505.34
2022-07-28T03:09:59.605Z,100510.75
2022-07-28T03:12:26.908Z,100514.41
2022-07-28T03:14:53.685Z,100509.88
2022-07-28T03:17:20.307Z,100506.19
2022-07-28T03:19:47.005Z,100517.66
2022-07-28T03:22:13.831Z,100519.50
2022-07-28T03:24:44.420Z,100527.44
2022-07-28T03:27:31.406Z,100538.69
2022-07-28T03:30:20.866Z,100536.25
2022-07-28T03:32:54.670Z,100531.34
2022-07-28T03:35:21.605Z,100544.84
2022-07-28T03:37:58.310Z,100543.22
2022-07-28T03:40:28.833Z,100536.22
2022-07-28T03:42:57.342Z,100537.13
2022-07-28T03:45:24.341Z,100535.00
2022-07-28T03:47:56.441Z,100536.81
2022-07-28T03:50:24.651Z,100534.84
2022-07-28T03:52:51.843Z,100541.13
2022-07-28T03:55:19.125Z,100541.91
2022-07-28T03:57:45.888Z,100541.03
2022-07-28T04:00:13.022Z,100545.41
2022-07-28T04:02:43.732Z,100547.06
2022-07-28T04:05:11.458Z,100552.50
2022-07-28T04:07:37.950Z,100549.53
2022-07-28T04:10:06.250Z,100551.31
2022-07-28T04:12:51.398Z,100555.13
2022-07-28T04:15:18.860Z,100564.56
2022-07-28T04:17:45.893Z,100565.09
2022-07-28T04:20:12.612Z,100563.72
2022-07-28T04:22:39.130Z,100564.00
2022-07-28T04:25:06.888Z,100566.88
2022-07-28T04:27:35.836Z,100572.94
2022-07-28T04:30:07.350Z,100571.44
2022-07-28T04:32:33.948Z,100565.69
2022-07-28T04:35:00.529Z,100573.91
2022-07-28T04:37:27.440Z,100566.81
2022-07-28T04:39:59.217Z,100570.84
2022-07-28T04:42:26.044Z,100573.44
2022-07-28T04:44:52.818Z,100570.56
2022-07-28T04:47:19.280Z,100576.69
2022-07-28T04:49:45.826Z,100575.16
2022-07-28T04:52:12.531Z,100577.84
2022-07-28T04:54:39.355Z,100576.06
2022-07-28T04:57:11.413Z,100576.00
2022-07-28T04:59:39.514Z,100579.47
2022-07-28T05:02:06.992Z,100583.84
2022-07-28T05:04:33.540Z,100582.09
2022-07-28T05:07:01.776Z,100579.09
2022-07-28T05:09:34.563Z,100571.25
2022-07-28T05:12:01.069Z,100578.72
2022-07-28T05:14:27.593Z,100575.88
2022-07-28T05:16:54.121Z,100574.53
2022-07-28T05:19:20.598Z,100566.06
2022-07-28T05:21:47.128Z,100570.13
2022-07-28T05:24:14.420Z,100579.78
2022-07-28T05:26:41.419Z,100584.34
2022-07-28T05:29:08.165Z,100581.28
2022-07-28T05:31:34.752Z,100581.16
2022-07-28T05:34:01.578Z,100589.47
2022-07-28T05:36:28.047Z,100582.31
2022-07-28T05:38:54.501Z,100584.38
2022-07-28T05:41:20.959Z,100579.91
2022-07-28T05:43:47.420Z,100583.81
2022-07-28T05:46:13.907Z,100589.53
2022-07-28T05:48:40.457Z,100583.75
2022-07-28T05:51:06.989Z,100587.88
2022-07-28T05:53:33.473Z,100587.22
2022-07-28T05:56:01.702Z,100595.38
2022-07-28T05:58:29.896Z,100592.47
2022-07-28T06:00:59.939Z,100602.94
2022-07-28T06:03:26.588Z,100604.31
2022-07-28T06:05:59.257Z,100607.31
2022-07-28T06:08:41.942Z,100610.50
2022-07-28T06:11:11.796Z,100601.09
2022-07-28T06:13:39.502Z,100611.47
2022-07-28T06:16:11.195Z,100616.56
2022-07-28T06:18:39.802Z,100609.56
2022-07-28T06:21:06.275Z,100608.84
2022-07-28T06:23:32.772Z,100611.25
2022-07-28T06:25:59.272Z,100608.91
2022-07-28T06:28:25.879Z,100605.25
2022-07-28T06:30:52.383Z,100608.97
2022-07-28T06:33:19.012Z,100608.19
2022-07-28T06:35:51.109Z,100605.53
2022-07-28T06:38:19.510Z,100610.19
2022-07-28T06:40:46.344Z,100614.84
2022-07-28T06:43:14.406Z,100615.25
2022-07-28T06:45:40.977Z,100619.72
2022-07-28T06:48:08.651Z,100620.56
2022-07-28T06:50:35.991Z,100624.91
2022-07-28T06:53:02.524Z,100621.41
2022-07-28T06:55:35.331Z,100621.66
2022-07-28T06:58:02.638Z,100618.09
2022-07-28T07:00:29.295Z,100629.88
2022-07-28T07:02:55.797Z,100640.63
2022-07-28T07:05:22.306Z,100629.22
2022-07-28T07:07:48.954Z,100628.81
2022-07-28T07:10:15.710Z,100634.53
2022-07-28T07:12:42.165Z,100627.28
2022-07-28T07:15:09.376Z,100623.78
2022-07-28T07:17:37.528Z,100622.28
2022-07-28T07:20:06.631Z,100613.94
2022-07-28T07:22:33.149Z,100615.63
2022-07-28T07:25:08.897Z,100620.03
2022-07-28T07:27:35.429Z,100623.00
2022-07-28T07:30:02.135Z,100624.78
2022-07-28T07:32:28.617Z,100619.72
2022-07-28T07:34:55.090Z,100613.69
2022-07-28T07:37:22.036Z,100613.75
2022-07-28T07:39:48.497Z,100620.22
2022-07-28T07:42:14.973Z,100618.44
2022-07-28T07:44:41.530Z,100622.13
2022-07-28T07:47:16.601Z,100622.44
2022-07-28T07:49:45.154Z,100622.50
2022-07-28T07:52:13.239Z,100623.44
2022-07-28T07:54:39.749Z,100622.41
2022-07-28T07:57:06.241Z,100618.06
2022-07-28T07:59:32.722Z,100618.03
2022-07-28T08:01:59.257Z,100615.31
2022-07-28T08:04:25.876Z,100616.25
2022-07-28T08:06:56.428Z,100620.69
2022-07-28T08:09:23.002Z,100614.63
2022-07-28T08:11:49.578Z,100619.31
2022-07-28T08:14:17.613Z,100624.03
2022-07-28T08:16:44.676Z,100617.09
2022-07-28T08:19:11.746Z,100617.03
2022-07-28T08:21:38.730Z,100622.19
2022-07-28T08:24:05.545Z,100615.16
2022-07-28T08:26:32.007Z,100619.03
2022-07-28T08:28:58.546Z,100626.38
2022-07-28T08:31:25.103Z,100618.31
2022-07-28T08:33:53.301Z,100622.50
2022-07-28T08:36:21.293Z,100623.66
2022-07-28T08:38:47.766Z,100620.25
2022-07-28T08:41:22.807Z,100631.88
2022-07-28T08:43:53.806Z,100625.81
2022-07-28T08:46:21.927Z,100634.47
2022-07-28T08:48:50.808Z,100636.41
2022-07-28T08:51:18.873Z,100640.00
2022-07-28T08:53:46.510Z,100637.66
2022-07-28T08:56:15.810Z,100638.72
2022-07-28T08:58:42.693Z,100648.63
2022-07-28T09:01:10.781Z,100645.31
2022-07-28T09:03:39.212Z,100645.19
2022-07-28T09:06:08.026Z,100644.84
2022-07-28T09:08:34.693Z,100651.06
2022-07-28T09:11:01.809Z,100648.03
2022-07-28T09:13:28.419Z,100653.50
2022-07-28T09:15:55.040Z,100650.91
2022-07-28T09:18:21.654Z,100643.16
2022-07-28T09:20:48.126Z,100642.97
2022-07-28T09:23:42.516Z,100644.31
2022-07-28T09:26:12.676Z,100644.50
2022-07-28T09:28:57.131Z,100642.50
2022-07-28T09:31:26.899Z,100640.94
2022-07-28T09:33:58.639Z,100644.41
2022-07-28T09:36:25.162Z,100649.00
2022-07-28T09:38:52.021Z,100635.06
2022-07-28T09:41:21.727Z,100632.84
2022-07-28T09:43:54.861Z,100624.16
2022-07-28T09:46:26.263Z,100634.03
2022-07-28T09:48:59.535Z,100637.38
2022-07-28T09:51:27.444Z,100631.63
2022-07-28T09:54:06.872Z,100633.59
2022-07-28T09:56:33.559Z,100638.84
2022-07-28T09:59:00.591Z,100635.19
2022-07-28T10:01:36.695Z,100635.47
2022-07-28T10:04:04.085Z,100630.22
2022-07-28T10:06:32.881Z,100637.34
2022-07-28T10:09:04.378Z,100622.47
2022-07-28T10:11:31.456Z,100624.47
2022-07-28T10:14:00.555Z,100617.38
2022-07-28T10:16:32.251Z,100611.22
2022-07-28T10:19:01.458Z,100614.56
2022-07-28T10:21:30.814Z,100618.09
2022-07-28T10:24:02.630Z,100608.66
2022-07-28T10:26:32.340Z,100608.72
2022-07-28T10:29:06.956Z,100609.66
2022-07-28T10:31:38.736Z,100606.81
2022-07-28T10:34:10.082Z,100604.22
2022-07-28T10:36:39.689Z,100607.03
2022-07-28T10:39:13.491Z,100594.59
2022-07-28T10:41:42.067Z,100607.63
2022-07-28T10:44:14.284Z,100602.34
2022-07-28T10:46:42.728Z,100611.41
2022-07-28T10:49:10.831Z,100608.63
2022-07-28T10:51:59.815Z,100598.09
2022-07-28T10:54:29.643Z,100597.41
2022-07-28T10:57:04.731Z,100602.66
2022-07-28T11:00:12.368Z,100595.66
2022-07-28T11:02:53.311Z,100589.41
2022-07-28T11:05:36.626Z,100592.84
2022-07-28T11:08:09.620Z,100600.09
2022-07-28T11:10:51.104Z,100594.00
2022-07-28T11:13:30.026Z,100581.53
2022-07-28T11:16:14.463Z,100574.69
2022-07-28T11:19:04.809Z,100583.56
2022-07-28T11:21:41.150Z,100574.66
2022-07-28T11:24:10.167Z,100574.69
2022-07-28T11:26:44.745Z,100577.44
2022-07-28T11:29:11.163Z,100565.78
2022-07-28T11:31:43.860Z,100569.41
2022-07-28T11:34:15.226Z,100561.41
2022-07-28T11:37:05.996Z,100566.78
2022-07-28T11:39:44.114Z,100555.16
2022-07-28T11:42:30.859Z,100545.44
2022-07-28T11:45:17.743Z,100546.34
2022-07-28T11:47:44.274Z,100544.59
2022-07-28T11:50:13.346Z,100542.88
2022-07-28T11:52:51.807Z,100545.50
2022-07-28T11:55:19.021Z,100549.09
2022-07-28T11:57:49.548Z,100554.44
2022-07-28T12:00:22.889Z,100553.59
2022-07-28T12:02:50.710Z,100552.69
2022-07-28T12:05:20.452Z,100554.44
2022-07-28T12:07:51.772Z,100556.19
2022-07-28T12:10:53.859Z,100558.97
2022-07-28T12:13:27.996Z,100557.25
2022-07-28T12:15:54.553Z,100551.00
2022-07-28T12:18:21.624Z,100550.09
2022-07-28T12:20:53.660Z,100539.41
2022-07-28T12:23:34.947Z,100538.53
2022-07-28T12:26:10.793Z,100540.38
2022-07-28T12:28:37.388Z,100540.28
2022-07-28T12:31:12.633Z,100541.13
2022-07-28T12:33:39.241Z,100543.00
2022-07-28T12:36:07.131Z,100538.63
2022-07-28T12:38:34.137Z,100538.63
2022-07-28T12:41:00.801Z,100533.34
2022-07-28T12:43:32.114Z,100542.22
2022-07-28T12:45:58.729Z,100536.84
2022-07-28T12:48:25.468Z,100536.81
2022-07-28T12:50:52.177Z,100527.94
2022-07-28T12:53:21.814Z,100525.19
2022-07-28T12:55:48.566Z,100524.31
2022-07-28T12:58:23.788Z,100519.84
2022-07-28T13:00:52.297Z,100515.53
2022-07-28T13:03:27.974Z,100510.22
2022-07-28T13:06:02.243Z,100513.78
2022-07-28T13:08:44.733Z,100517.34
2022-07-28T13:11:42.405Z,100515.56
2022-07-28T13:14:02.130Z,100527.09
2022-07-28T13:16:29.971Z,100523.50
2022-07-28T13:18:59.395Z,100521.66
2022-07-28T13:21:59.638Z,100512.81
2022-07-28T13:24:29.635Z,100514.59
2022-07-28T13:26:58.321Z,100511.06
2022-07-28T13:29:24.913Z,100500.41
2022-07-28T13:31:54.369Z,100495.19
2022-07-28T13:34:21.263Z,100498.75
2022-07-28T13:36:47.842Z,100496.94
2022-07-28T13:39:14.403Z,100497.84
2022-07-28T13:41:56.453Z,100490.72
2022-07-28T13:44:29.169Z,100492.50
2022-07-28T13:46:59.212Z,100495.19
2022-07-28T13:49:27.437Z,100487.22
2022-07-28T13:51:54.706Z,100493.44
2022-07-28T13:54:21.244Z,100496.97
2022-07-28T13:56:49.139Z,100497.00
2022-07-28T13:59:15.733Z,100484.59
2022-07-28T14:01:42.590Z,100486.31
2022-07-28T14:04:14.649Z,100480.13
2022-07-28T14:06:44.905Z,100477.50
2022-07-28T14:09:12.059Z,100473.03
2022-07-28T14:11:41.263Z,100471.25
2022-07-28T14:14:17.101Z,100462.41
2022-07-28T14:16:47.868Z,100462.44
2022-07-28T14:19:16.479Z,100464.16
2022-07-28T14:21:50.180Z,100455.28
2022-07-28T14:24:17.501Z,100459.75
2022-07-28T14:26:44.268Z,100450.84
2022-07-28T14:29:11.593Z,100445.53
2022-07-28T14:31:38.691Z,100458.84
2022-07-28T14:34:05.254Z,100446.44
2022-07-28T14:36:31.788Z,100448.19
2022-07-28T14:38:58.278Z,100444.69
2022-07-28T14:41:25.793Z,100437.59
2022-07-28T14:43:53.014Z,100444.66
2022-07-28T14:46:21.733Z,100434.03
2022-07-28T14:48:49.244Z,100433.16
2022-07-28T14:51:15.817Z,100435.81
2022-07-28T14:53:50.068Z,100430.50
2022-07-28T14:56:18.712Z,100431.38
2022-07-28T14:58:45.233Z,100431.38
2022-07-28T15:01:11.873Z,100423.41
2022-07-28T15:03:38.400Z,100418.97
2022-07-28T15:06:10.005Z,100419.84
2022-07-28T15:08:36.591Z,100422.50
2022-07-28T15:11:03.200Z,100421.63
2022-07-28T15:13:29.736Z,100429.56
2022-07-28T15:15:56.847Z,100429.56
2022-07-28T15:18:24.494Z,100430.44
2022-07-28T15:20:51.329Z,100422.47
2022-07-28T15:23:18.008Z,100433.09
2022-07-28T15:25:46.348Z,100422.47
2022-07-28T15:28:17.633Z,100420.72
2022-07-28T15:30:51.342Z,100418.91
2022-07-28T15:33:20.451Z,100423.34
2022-07-28T15:35:58.515Z,100426.00
2022-07-28T15:38:27.672Z,100417.16
2022-07-28T15:40:54.169Z,100411.84
2022-07-28T15:43:23.813Z,100414.50
2022-07-28T15:45:51.159Z,100416.25
2022-07-28T15:48:17.647Z,100420.66
2022-07-28T15:50:48.442Z,100409.13
2022-07-28T15:53:16.336Z,100406.47
2022-07-28T15:55:46.245Z,100410.91
2022-07-28T15:58:15.561Z,100410.94
2022-07-28T16:00:44.607Z,100417.13
2022-07-28T16:03:11.572Z,100406.47
2022-07-28T16:05:38.284Z,100417.16
2022-07-28T16:08:05.048Z,100411.81
2022-07-28T16:10:31.532Z,100405.63
2022-07-28T16:12:57.980Z,100402.09
2022-07-28T16:15:27.330Z,100397.63
2022-07-28T16:17:54.558Z,100395.84
2022-07-28T16:20:21.059Z,100403.81
2022-07-28T16:22:48.061Z,100394.94
2022-07-28T16:25:19.764Z,100401.06
2022-07-28T16:27:47.569Z,100407.25
2022-07-28T16:30:15.039Z,100394.00
2022-07-28T16:32:41.606Z,100387.81
2022-07-28T16:35:08.910Z,100394.84
2022-07-28T16:37:36.229Z,100386.03
2022-07-28T16:40:03.707Z,100382.50
2022-07-28T16:42:30.470Z,100378.94
2022-07-28T16:44:57.263Z,100373.59
2022-07-28T16:47:23.720Z,100364.75
2022-07-28T16:49:50.197Z,100364.72
2022-07-28T16:52:16.713Z,100361.19
2022-07-28T16:54:43.250Z,100364.72
2022-07-28T16:57:09.825Z,100362.00
2022-07-28T16:59:37.525Z,100367.31
2022-07-28T17:02:14.524Z,100362.91
2022-07-28T17:04:41.073Z,100369.16
2022-07-28T17:07:08.257Z,100374.44
2022-07-28T17:09:34.744Z,100369.06
2022-07-28T17:12:01.274Z,100372.59
2022-07-28T17:14:27.756Z,100371.69
2022-07-28T17:16:54.283Z,100366.38
2022-07-28T17:19:22.130Z,100371.69
2022-07-28T17:21:49.034Z,100367.25
2022-07-28T17:24:16.143Z,100363.66
2022-07-28T17:27:35.196Z,100360.09
2022-07-28T17:29:29.452Z,100356.53
2022-07-28T17:31:56.133Z,100358.31
2022-07-28T17:34:22.732Z,100371.50
2022-07-28T17:36:50.387Z,100367.94
2022-07-28T17:39:16.858Z,100380.31
2022-07-28T17:41:43.423Z,100382.97
2022-07-28T17:44:09.908Z,100407.69
2022-07-28T17:46:37.933Z,100402.38
2022-07-28T17:49:06.357Z,100402.38
2022-07-28T17:51:32.897Z,100402.34
2022-07-28T17:53:59.590Z,100410.28
2022-07-28T17:56:26.625Z,100411.13
2022-07-28T17:58:53.427Z,100407.63
2022-07-28T18:01:20.008Z,100413.78
2022-07-28T18:03:59.425Z,100416.41
2022-07-28T18:06:33.914Z,100418.13
2022-07-28T18:09:06.404Z,100422.41
2022-07-28T18:11:56.619Z,100414.41
2022-07-28T18:14:25.865Z,100421.41
2022-07-28T18:16:52.438Z,100423.13
2022-07-28T18:19:18.900Z,100426.69
2022-07-28T18:21:45.352Z,100419.53
2022-07-28T18:24:11.909Z,100417.75
2022-07-28T18:26:38.490Z,100421.28
2022-07-28T18:29:04.956Z,100420.22
2022-07-28T18:31:31.923Z,100425.25
2022-07-28T18:33:58.569Z,100425.88
2022-07-28T18:36:25.005Z,100423.91
2022-07-28T18:38:51.463Z,100419.22
2022-07-28T18:41:17.957Z,100416.34
2022-07-28T18:43:44.497Z,100428.50
2022-07-28T18:46:11.006Z,100425.84
2022-07-28T18:48:38.090Z,100421.47
2022-07-28T18:51:04.706Z,100412.50
2022-07-28T18:53:31.233Z,100399.34
2022-07-28T18:55:58.200Z,100395.81
2022-07-28T18:58:24.665Z,100397.47
2022-07-28T19:00:51.171Z,100405.41
2022-07-28T19:03:17.700Z,100410.69
2022-07-28T19:05:46.357Z,100433.66
2022-07-28T19:08:13.219Z,100444.34
2022-07-28T19:10:39.795Z,100454.03
2022-07-28T19:13:12.270Z,100459.25
2022-07-28T19:15:40.597Z,100479.41
2022-07-28T19:18:09.822Z,100489.94
2022-07-28T19:20:44.016Z,100507.53
2022-07-28T19:23:10.676Z,100509.31
2022-07-28T19:25:38.951Z,100520.78
2022-07-28T19:28:05.873Z,100528.66
2022-07-28T19:30:32.566Z,100535.63
2022-07-28T19:32:59.380Z,100539.97
2022-07-28T19:35:26.200Z,100535.53
2022-07-28T19:37:52.674Z,100539.16
2022-07-28T19:40:19.253Z,100539.25
2022-07-28T19:42:48.238Z,100541.03
2022-07-28T19:45:14.721Z,100541.78
2022-07-28T19:47:42.177Z,100552.38
2022-07-28T19:50:09.155Z,100559.38
2022-07-28T19:52:35.954Z,100567.38
2022-07-28T19:55:05.294Z,100583.25
2022-07-28T19:57:32.608Z,100592.88
2022-07-28T19:59:59.254Z,100607.72
2022-07-28T20:02:25.794Z,100615.53
2022-07-28T20:04:52.350Z,100619.81
2022-07-28T20:07:19.060Z,100635.66
2022-07-28T20:09:45.517Z,100646.94
2022-07-28T20:12:11.978Z,100649.34
2022-07-28T20:14:38.498Z,100660.38
2022-07-28T20:17:05.108Z,100656.34
2022-07-28T20:19:31.753Z,100660.16
2022-07-28T20:21:58.264Z,100667.69
2022-07-28T20:24:24.855Z,100671.97
2022-07-28T20:26:51.343Z,100677.16
2022-07-28T20:29:18.073Z,100671.19
2022-07-28T20:31:44.543Z,100663.41
2022-07-28T20:34:12.962Z,100659.28
2022-07-28T20:36:39.900Z,100659.66
2022-07-28T20:39:21.444Z,100657.31
2022-07-28T20:41:52.985Z,100646.72
2022-07-28T20:44:28.672Z,100635.50
2022-07-28T20:47:00.239Z,100639.19
2022-07-28T20:49:28.371Z,100641.31
2022-07-28T20:51:55.750Z,100655.22
2022-07-28T20:54:22.355Z,100656.81
2022-07-28T20:56:48.797Z,100647.47
2022-07-28T20:59:15.303Z,100648.84
2022-07-28T21:01:41.952Z,100658.63
2022-07-28T21:04:11.280Z,100653.91
2022-07-28T21:06:38.149Z,100664.47
2022-07-28T21:09:05.141Z,100678.47
2022-07-28T21:11:34.953Z,100672.22
2022-07-28T21:14:01.997Z,100675.94
2022-07-28T21:16:28.606Z,100674.81
2022-07-28T21:18:55.246Z,100680.53
2022-07-28T21:21:22.186Z,100681.09
2022-07-28T21:23:49.926Z,100682.94
2022-07-28T21:26:17.106Z,100671.63
2022-07-28T21:29:02.466Z,100661.69
2022-07-28T21:31:28.943Z,100649.88
2022-07-28T21:33:55.616Z,100653.34
2022-07-28T21:36:22.681Z,100655.63
2022-07-28T21:38:49.231Z,100658.66
2022-07-28T21:41:16.305Z,100663.13
2022-07-28T21:43:42.790Z,100645.91
2022-07-28T21:46:09.471Z,100635.69
2022-07-28T21:48:36.036Z,100625.47
2022-07-28T21:51:02.690Z,100624.41
2022-07-28T21:53:29.161Z,100628.59
2022-07-28T21:55:57.079Z,100628.59
2022-07-28T21:58:23.604Z,100636.47
2022-07-28T22:00:50.131Z,100641.75
2022-07-28T22:03:16.618Z,100642.91
2022-07-28T22:05:43.231Z,100637.69
2022-07-28T22:08:09.797Z,100655.09
2022-07-28T22:10:36.363Z,100654.66
2022-07-28T22:13:02.832Z,100659.13
2022-07-28T22:15:29.310Z,100667.72
2022-07-28T22:17:55.793Z,100675.19
2022-07-28T22:20:22.308Z,100669.19
2022-07-28T22:22:48.766Z,100662.38
2022-07-28T22:25:15.328Z,100671.28
2022-07-28T22:27:41.825Z,100657.22
2022-07-28T22:30:08.884Z,100653.47
2022-07-28T22:32:35.369Z,100658.88
2022-07-28T22:35:01.865Z,100659.25
2022-07-28T22:37:28.451Z,100678.47
2022-07-28T22:39:54.961Z,100700.75
2022-07-28T22:42:21.465Z,100709.78
2022-07-28T22:44:48.601Z,100708.63
2022-07-28T22:47:15.223Z,100697.72
2022-07-28T22:49:41.664Z,100691.81
2022-07-28T22:52:08.166Z,100695.38
2022-07-28T22:54:39.030Z,100684.75
2022-07-28T22:57:06.246Z,100680.47
2022-07-28T22:59:37.187Z,100675.03
2022-07-28T23:02:06.593Z,100680.13
2022-07-28T23:04:33.287Z,100683.03
2022-07-28T23:06:59.735Z,100687.66
2022-07-28T23:09:27.390Z,100694.91
2022-07-28T23:11:55.642Z,100710.66
2022-07-28T23:14:22.942Z,100713.53
2022-07-28T23:16:49.472Z,100710.06
2022-07-28T23:19:16.378Z,100711.00
2022-07-28T23:21:42.980Z,100720.28
2022-07-28T23:24:09.472Z,100714.00
2022-07-28T23:26:36.010Z,100716.75
2022-07-28T23:29:02.544Z,100703.50
2022-07-28T23:31:29.209Z,100709.25
2022-07-28T23:33:57.623Z,100695.75
2022-07-28T23:36:26.451Z,100698.19
2022-07-28T23:38:54.040Z,100692.78
2022-07-28T23:41:20.517Z,100698.22
2022-07-28T23:43:46.977Z,100695.22
2022-07-28T23:46:13.535Z,100699.81
2022-07-28T23:48:40.152Z,100688.88
2022-07-28T23:51:06.718Z,100696.75
2022-07-28T23:53:36.971Z,100689.22
2022-07-28T23:56:03.578Z,100693.25
2022-07-28T23:58:30.068Z,100699.28
